sensor_id;sensor_type;location;lat;lon;timestamp;pressure;altitude;pressure_sealevel;temperature;humidity
15444;BME280;7822;48.146;11.576;2023-05-29T00:02:03;95127.22;;;16.77;64.91
15444;BME280;7822;48.146;11.576;2023-05-29T00:04:30;95129.81;;;16.77;65.01
15444;BME280;7822;48.146;11.576;2023-05-29T00:06:58;95125.59;;;16.76;64.76
15444;BME280;7822;48.146;11.576;2023-05-29T00:09:25;95132.44;;;16.77;64.99
15444;BME280;7822;48.146;11.576;2023-05-29T00:11:53;95128.19;;;16.76;65.18
15444;BME280;7822;48.146;11.576;2023-05-29T00:14:20;95126.41;;;16.76;65.17
15444;BME280;7822;48.146;11.576;2023-05-29T00:16:48;95125.59;;;16.76;65.05
15444;BME280;7822;48.146;11.576;2023-05-29T00:19:18;95131.66;;;16.76;65.10
15444;BME280;7822;48.146;11.576;2023-05-29T00:21:45;95133.44;;;16.76;65.15
15444;BME280;7822;48.146;11.576;2023-05-29T00:24:14;95135.25;;;16.75;65.11
15444;BME280;7822;48.146;11.576;2023-05-29T00:26:42;95131.66;;;16.76;65.12
15444;BME280;7822;48.146;11.576;2023-05-29T00:29:09;95130.00;;;16.75;65.11
15444;BME280;7822;48.146;11.576;2023-05-29T00:31:37;95130.00;;;16.75;65.17
15444;BME280;7822;48.146;11.576;2023-05-29T00:34:04;95127.38;;;16.75;65.13
15444;BME280;7822;48.146;11.576;2023-05-29T00:36:34;95124.75;;;16.75;65.18
15444;BME280;7822;48.146;11.576;2023-05-29T00:39:01;95125.72;;;16.74;65.33
15444;BME280;7822;48.146;11.576;2023-05-29T00:41:29;95119.53;;;16.75;65.12
15444;BME280;7822;48.146;11.576;2023-05-29T00:43:57;95123.09;;;16.74;65.19
15444;BME280;7822;48.146;11.576;2023-05-29T00:46:24;95114.28;;;16.75;65.19
15444;BME280;7822;48.146;11.576;2023-05-29T00:48:52;95120.34;;;16.76;65.23
15444;BME280;7822;48.146;11.576;2023-05-29T00:51:20;95114.44;;;16.74;65.18
15444;BME280;7822;48.146;11.576;2023-05-29T00:53:50;95123.09;;;16.74;65.27
15444;BME280;7822;48.146;11.576;2023-05-29T00:56:17;95117.88;;;16.74;65.20
15444;BME280;7822;48.146;11.576;2023-05-29T00:58:47;95110.84;;;16.75;65.18
15444;BME280;7822;48.146;11.576;2023-05-29T01:01:15;95110.84;;;16.75;65.29
15444;BME280;7822;48.146;11.576;2023-05-29T01:03:43;95111.00;;;16.73;65.24
15444;BME280;7822;48.146;11.576;2023-05-29T01:06:11;95110.84;;;16.75;65.24
15444;BME280;7822;48.146;11.576;2023-05-29T01:08:39;95122.13;;;16.75;65.36
15444;BME280;7822;48.146;11.576;2023-05-29T01:11:11;95117.72;;;16.76;65.34
15444;BME280;7822;48.146;11.576;2023-05-29T01:13:40;95110.84;;;16.75;65.25
15444;BME280;7822;48.146;11.576;2023-05-29T01:16:11;95115.94;;;16.76;65.50
15444;BME280;7822;48.146;11.576;2023-05-29T01:18:41;95111.84;;;16.74;65.22
15444;BME280;7822;48.146;11.576;2023-05-29T01:21:14;95113.44;;;16.75;65.14
15444;BME280;7822;48.146;11.576;2023-05-29T01:23:50;95116.06;;;16.75;65.33
15444;BME280;7822;48.146;11.576;2023-05-29T01:29:07;95122.13;;;16.75;65.28
15444;BME280;7822;48.146;11.576;2023-05-29T01:31:35;95128.19;;;16.76;65.32
15444;BME280;7822;48.146;11.576;2023-05-29T01:34:04;95122.97;;;16.76;65.33
15444;BME280;7822;48.146;11.576;2023-05-29T01:36:32;95124.75;;;16.75;65.35
15444;BME280;7822;48.146;11.576;2023-05-29T01:38:59;95114.28;;;16.75;65.30
15444;BME280;7822;48.146;11.576;2023-05-29T01:41:27;95119.53;;;16.75;65.39
15444;BME280;7822;48.146;11.576;2023-05-29T01:43:56;95125.59;;;16.76;65.44
15444;BME280;7822;48.146;11.576;2023-05-29T01:46:27;95127.38;;;16.75;65.35
15444;BME280;7822;48.146;11.576;2023-05-29T01:48:54;95122.13;;;16.75;65.48
15444;BME280;7822;48.146;11.576;2023-05-29T01:51:22;95124.75;;;16.75;65.34
15444;BME280;7822;48.146;11.576;2023-05-29T01:53:50;95114.28;;;16.75;65.61
15444;BME280;7822;48.146;11.576;2023-05-29T01:56:17;95122.31;;;16.74;65.41
15444;BME280;7822;48.146;11.576;2023-05-29T01:58:45;95124.94;;;16.74;65.40
15444;BME280;7822;48.146;11.576;2023-05-29T02:01:13;95123.94;;;16.75;65.42
15444;BME280;7822;48.146;11.576;2023-05-29T02:03:42;95123.94;;;16.75;65.33
15444;BME280;7822;48.146;11.576;2023-05-29T02:06:09;95114.44;;;16.74;65.46
15444;BME280;7822;48.146;11.576;2023-05-29T02:08:37;95114.44;;;16.74;65.59
15444;BME280;7822;48.146;11.576;2023-05-29T02:11:05;95125.72;;;16.74;65.40
15444;BME280;7822;48.146;11.576;2023-05-29T02:13:32;95118.88;;;16.73;65.58
15444;BME280;7822;48.146;11.576;2023-05-29T02:16:00;95111.00;;;16.73;65.61
15444;BME280;7822;48.146;11.576;2023-05-29T02:18:27;95115.41;;;16.73;65.39
15444;BME280;7822;48.146;11.576;2023-05-29T02:20:57;95110.19;;;16.73;65.52
15444;BME280;7822;48.146;11.576;2023-05-29T02:23:25;95111.00;;;16.73;65.54
15444;BME280;7822;48.146;11.576;2023-05-29T02:25:53;95107.38;;;16.74;65.47
15444;BME280;7822;48.146;11.576;2023-05-29T02:28:20;95103.16;;;16.73;65.46
15444;BME280;7822;48.146;11.576;2023-05-29T02:30:48;95103.16;;;16.73;65.59
15444;BME280;7822;48.146;11.576;2023-05-29T02:33:16;95102.31;;;16.73;65.71
15444;BME280;7822;48.146;11.576;2023-05-29T02:35:43;95107.56;;;16.73;65.72
15444;BME280;7822;48.146;11.576;2023-05-29T02:38:12;95107.56;;;16.73;65.44
15444;BME280;7822;48.146;11.576;2023-05-29T02:40:40;95104.13;;;16.72;65.56
15444;BME280;7822;48.146;11.576;2023-05-29T02:43:09;95109.34;;;16.72;65.64
15444;BME280;7822;48.146;11.576;2023-05-29T02:45:36;95110.19;;;16.73;65.83
15444;BME280;7822;48.146;11.576;2023-05-29T02:48:04;95116.25;;;16.73;65.87
15444;BME280;7822;48.146;11.576;2023-05-29T02:50:32;95108.38;;;16.73;65.77
15444;BME280;7822;48.146;11.576;2023-05-29T02:53:00;95106.72;;;16.72;65.75
15444;BME280;7822;48.146;11.576;2023-05-29T02:55:29;95099.69;;;16.73;65.81
15444;BME280;7822;48.146;11.576;2023-05-29T02:57:58;95102.31;;;16.73;65.81
15444;BME280;7822;48.146;11.576;2023-05-29T03:00:27;95111.00;;;16.73;65.89
15444;BME280;7822;48.146;11.576;2023-05-29T03:02:56;95110.19;;;16.73;65.83
15444;BME280;7822;48.146;11.576;2023-05-29T03:05:23;95110.19;;;16.73;65.95
15444;BME280;7822;48.146;11.576;2023-05-29T03:07:52;95104.13;;;16.72;65.99
15444;BME280;7822;48.146;11.576;2023-05-29T03:10:19;95119.69;;;16.74;65.96
15444;BME280;7822;48.146;11.576;2023-05-29T03:12:48;95117.88;;;16.74;66.00
15444;BME280;7822;48.146;11.576;2023-05-29T03:15:16;95117.22;;;16.72;65.96
15444;BME280;7822;48.146;11.576;2023-05-29T03:17:46;95113.63;;;16.73;65.91
15444;BME280;7822;48.146;11.576;2023-05-29T03:20:14;95117.22;;;16.72;66.01
15444;BME280;7822;48.146;11.576;2023-05-29T03:22:42;95114.59;;;16.72;66.02
15444;BME280;7822;48.146;11.576;2023-05-29T03:25:09;95114.59;;;16.72;66.04
15444;BME280;7822;48.146;11.576;2023-05-29T03:27:37;95115.59;;;16.71;65.91
15444;BME280;7822;48.146;11.576;2023-05-29T03:30:07;95119.84;;;16.72;66.07
15444;BME280;7822;48.146;11.576;2023-05-29T03:32:35;95117.22;;;16.72;66.01
15444;BME280;7822;48.146;11.576;2023-05-29T03:35:03;95119.84;;;16.72;65.97
15444;BME280;7822;48.146;11.576;2023-05-29T03:37:31;95119.84;;;16.72;66.12
15444;BME280;7822;48.146;11.576;2023-05-29T03:39:58;95119.84;;;16.72;66.02
15444;BME280;7822;48.146;11.576;2023-05-29T03:42:26;95128.69;;;16.71;65.90
15444;BME280;7822;48.146;11.576;2023-05-29T03:44:53;95125.06;;;16.72;65.99
15444;BME280;7822;48.146;11.576;2023-05-29T03:47:23;95128.69;;;16.71;65.81
15444;BME280;7822;48.146;11.576;2023-05-29T03:49:50;95131.31;;;16.71;66.07
15444;BME280;7822;48.146;11.576;2023-05-29T03:52:18;95130.47;;;16.71;66.08
15444;BME280;7822;48.146;11.576;2023-05-29T03:54:46;95140.00;;;16.72;65.94
15444;BME280;7822;48.146;11.576;2023-05-29T03:57:13;95137.50;;;16.70;66.04
15444;BME280;7822;48.146;11.576;2023-05-29T03:59:41;95133.94;;;16.71;65.96
15444;BME280;7822;48.146;11.576;2023-05-29T04:02:08;95133.94;;;16.71;66.21
15444;BME280;7822;48.146;11.576;2023-05-29T04:04:40;95137.50;;;16.70;66.20
15444;BME280;7822;48.146;11.576;2023-05-29T04:07:08;95140.13;;;16.70;66.10
15444;BME280;7822;48.146;11.576;2023-05-29T04:09:35;95139.16;;;16.71;66.04
15444;BME280;7822;48.146;11.576;2023-05-29T04:12:03;95141.78;;;16.71;66.06
15444;BME280;7822;48.146;11.576;2023-05-29T04:14:31;95143.41;;;16.72;66.07
15444;BME280;7822;48.146;11.576;2023-05-29T04:16:59;95147.84;;;16.72;66.00
15444;BME280;7822;48.146;11.576;2023-05-29T04:19:27;95149.47;;;16.73;66.23
15444;BME280;7822;48.146;11.576;2023-05-29T04:21:55;95151.13;;;16.74;66.28
15444;BME280;7822;48.146;11.576;2023-05-29T04:24:23;95158.16;;;16.73;66.41
15444;BME280;7822;48.146;11.576;2023-05-29T04:26:51;95159.78;;;16.74;66.47
15444;BME280;7822;48.146;11.576;2023-05-29T04:29:18;95164.06;;;16.75;66.35
15444;BME280;7822;48.146;11.576;2023-05-29T04:31:46;95162.25;;;16.76;66.49
15444;BME280;7822;48.146;11.576;2023-05-29T04:34:14;95168.31;;;16.76;66.46
15444;BME280;7822;48.146;11.576;2023-05-29T04:36:42;95176.00;;;16.78;66.44
15444;BME280;7822;48.146;11.576;2023-05-29T04:39:12;95170.94;;;16.76;66.60
15444;BME280;7822;48.146;11.576;2023-05-29T04:41:39;95169.94;;;16.77;66.54
15444;BME280;7822;48.146;11.576;2023-05-29T04:44:07;95183.03;;;16.77;66.35
15444;BME280;7822;48.146;11.576;2023-05-29T04:46:37;95176.00;;;16.78;66.45
15444;BME280;7822;48.146;11.576;2023-05-29T04:49:05;95186.50;;;16.78;66.42
15444;BME280;7822;48.146;11.576;2023-05-29T04:51:34;95179.59;;;16.77;66.38
15444;BME280;7822;48.146;11.576;2023-05-29T04:54:02;95184.84;;;16.77;66.45
15444;BME280;7822;48.146;11.576;2023-05-29T04:56:31;95182.88;;;16.79;66.59
15444;BME280;7822;48.146;11.576;2023-05-29T04:58:59;95184.84;;;16.77;66.51
15444;BME280;7822;48.146;11.576;2023-05-29T05:01:26;95190.91;;;16.77;66.60
15444;BME280;7822;48.146;11.576;2023-05-29T05:03:55;95195.19;;;16.78;66.69
15444;BME280;7822;48.146;11.576;2023-05-29T05:06:23;95180.44;;;16.77;66.62
15444;BME280;7822;48.146;11.576;2023-05-29T05:08:51;95192.69;;;16.77;66.58
15444;BME280;7822;48.146;11.576;2023-05-29T05:11:19;95191.75;;;16.78;66.64
15444;BME280;7822;48.146;11.576;2023-05-29T05:13:49;95194.53;;;16.76;66.59
15444;BME280;7822;48.146;11.576;2023-05-29T05:16:16;95191.06;;;16.76;66.69
15444;BME280;7822;48.146;11.576;2023-05-29T05:18:44;95185.66;;;16.77;66.78
15444;BME280;7822;48.146;11.576;2023-05-29T05:21:12;95192.69;;;16.77;66.81
15444;BME280;7822;48.146;11.576;2023-05-29T05:23:40;95190.09;;;16.77;66.74
15444;BME280;7822;48.146;11.576;2023-05-29T05:26:23;95194.53;;;16.76;66.85
15444;BME280;7822;48.146;11.576;2023-05-29T05:28:53;95190.91;;;16.77;66.84
15444;BME280;7822;48.146;11.576;2023-05-29T05:31:21;95192.69;;;16.77;66.80
15444;BME280;7822;48.146;11.576;2023-05-29T05:33:49;95193.53;;;16.77;66.71
15444;BME280;7822;48.146;11.576;2023-05-29T05:36:16;95196.16;;;16.77;66.79
15444;BME280;7822;48.146;11.576;2023-05-29T05:38:44;95192.69;;;16.77;66.74
15444;BME280;7822;48.146;11.576;2023-05-29T05:41:12;95190.09;;;16.77;66.77
15444;BME280;7822;48.146;11.576;2023-05-29T05:43:39;95191.91;;;16.76;66.86
15444;BME280;7822;48.146;11.576;2023-05-29T05:46:08;95197.16;;;16.76;66.82
15444;BME280;7822;48.146;11.576;2023-05-29T05:48:36;95198.78;;;16.77;66.73
15444;BME280;7822;48.146;11.576;2023-05-29T05:51:03;95191.91;;;16.76;66.81
15444;BME280;7822;48.146;11.576;2023-05-29T05:53:31;95202.38;;;16.76;66.94
15444;BME280;7822;48.146;11.576;2023-05-29T05:55:58;95198.78;;;16.77;66.89
15444;BME280;7822;48.146;11.576;2023-05-29T05:58:26;95206.63;;;16.77;66.77
15444;BME280;7822;48.146;11.576;2023-05-29T06:00:54;95204.19;;;16.76;66.88
15444;BME280;7822;48.146;11.576;2023-05-29T06:03:23;95209.25;;;16.77;66.85
15444;BME280;7822;48.146;11.576;2023-05-29T06:05:51;95210.06;;;16.78;66.88
15444;BME280;7822;48.146;11.576;2023-05-29T06:08:20;95205.66;;;16.78;66.77
15444;BME280;7822;48.146;11.576;2023-05-29T06:10:48;95207.47;;;16.78;66.87
15444;BME280;7822;48.146;11.576;2023-05-29T06:13:15;95204.84;;;16.78;66.88
15444;BME280;7822;48.146;11.576;2023-05-29T06:15:44;95207.47;;;16.78;66.89
15444;BME280;7822;48.146;11.576;2023-05-29T06:18:11;95210.91;;;16.78;66.93
15444;BME280;7822;48.146;11.576;2023-05-29T06:20:40;95202.22;;;16.78;66.91
15444;BME280;7822;48.146;11.576;2023-05-29T06:23:08;95211.69;;;16.79;66.75
15444;BME280;7822;48.146;11.576;2023-05-29T06:25:35;95221.38;;;16.78;66.98
15444;BME280;7822;48.146;11.576;2023-05-29T06:28:03;95213.53;;;16.78;66.96
15444;BME280;7822;48.146;11.576;2023-05-29T06:30:32;95210.06;;;16.78;67.00
15444;BME280;7822;48.146;11.576;2023-05-29T06:32:59;95212.69;;;16.78;67.08
15444;BME280;7822;48.146;11.576;2023-05-29T06:35:27;95216.13;;;16.78;67.04
15444;BME280;7822;48.146;11.576;2023-05-29T06:37:56;95216.94;;;16.79;67.07
15444;BME280;7822;48.146;11.576;2023-05-29T06:40:23;95211.88;;;16.77;67.12
15444;BME280;7822;48.146;11.576;2023-05-29T06:42:51;95215.31;;;16.78;67.09
15444;BME280;7822;48.146;11.576;2023-05-29T06:45:18;95227.59;;;16.77;67.11
15444;BME280;7822;48.146;11.576;2023-05-29T06:47:46;95222.34;;;16.77;67.07
15444;BME280;7822;48.146;11.576;2023-05-29T06:50:13;95231.84;;;16.78;66.90
15444;BME280;7822;48.146;11.576;2023-05-29T06:52:41;95222.34;;;16.77;67.31
15444;BME280;7822;48.146;11.576;2023-05-29T06:55:10;95219.72;;;16.77;67.12
15444;BME280;7822;48.146;11.576;2023-05-29T06:57:37;95219.72;;;16.77;67.06
15444;BME280;7822;48.146;11.576;2023-05-29T07:00:05;95228.41;;;16.78;67.14
15444;BME280;7822;48.146;11.576;2023-05-29T07:02:33;95224.00;;;16.78;67.08
15444;BME280;7822;48.146;11.576;2023-05-29T07:05:01;95231.84;;;16.78;67.18
15444;BME280;7822;48.146;11.576;2023-05-29T07:07:29;95228.41;;;16.78;67.37
15444;BME280;7822;48.146;11.576;2023-05-29T07:09:57;95237.09;;;16.78;67.70
15444;BME280;7822;48.146;11.576;2023-05-29T07:12:26;95239.72;;;16.78;67.74
15444;BME280;7822;48.146;11.576;2023-05-29T07:14:53;95233.66;;;16.78;67.70
15444;BME280;7822;48.146;11.576;2023-05-29T07:17:21;95233.66;;;16.78;67.63
15444;BME280;7822;48.146;11.576;2023-05-29T07:19:49;95234.47;;;16.78;67.61
15444;BME280;7822;48.146;11.576;2023-05-29T07:22:16;95235.44;;;16.77;67.62
15444;BME280;7822;48.146;11.576;2023-05-29T07:24:44;95239.84;;;16.77;67.68
15444;BME280;7822;48.146;11.576;2023-05-29T07:27:12;95244.13;;;16.78;67.38
15444;BME280;7822;48.146;11.576;2023-05-29T07:29:41;95248.53;;;16.77;67.48
15444;BME280;7822;48.146;11.576;2023-05-29T07:32:08;95244.13;;;16.78;67.48
15444;BME280;7822;48.146;11.576;2023-05-29T07:34:37;95249.38;;;16.78;67.52
15444;BME280;7822;48.146;11.576;2023-05-29T07:37:05;95251.00;;;16.79;67.54
15444;BME280;7822;48.146;11.576;2023-05-29T07:39:34;95256.41;;;16.77;67.53
15444;BME280;7822;48.146;11.576;2023-05-29T07:42:02;95252.00;;;16.78;67.37
15444;BME280;7822;48.146;11.576;2023-05-29T07:44:31;95255.44;;;16.78;67.39
15444;BME280;7822;48.146;11.576;2023-05-29T07:47:00;95262.47;;;16.78;67.34
15444;BME280;7822;48.146;11.576;2023-05-29T07:49:28;95252.00;;;16.78;67.50
15444;BME280;7822;48.146;11.576;2023-05-29T07:51:56;95254.63;;;16.78;67.51
15444;BME280;7822;48.146;11.576;2023-05-29T07:54:23;95250.19;;;16.78;67.42
15444;BME280;7822;48.146;11.576;2023-05-29T07:56:51;95249.38;;;16.78;67.45
15444;BME280;7822;48.146;11.576;2023-05-29T07:59:19;95255.44;;;16.78;67.31
15444;BME280;7822;48.146;11.576;2023-05-29T08:01:47;95255.28;;;16.80;67.56
15444;BME280;7822;48.146;11.576;2023-05-29T08:04:16;95255.44;;;16.78;67.42
15444;BME280;7822;48.146;11.576;2023-05-29T08:06:43;95248.38;;;16.79;67.43
15444;BME280;7822;48.146;11.576;2023-05-29T08:09:11;95246.59;;;16.79;67.48
15444;BME280;7822;48.146;11.576;2023-05-29T08:11:39;95250.19;;;16.78;67.49
15444;BME280;7822;48.146;11.576;2023-05-29T08:14:06;95245.75;;;16.79;67.49
15444;BME280;7822;48.146;11.576;2023-05-29T08:16:34;95251.00;;;16.79;67.69
15444;BME280;7822;48.146;11.576;2023-05-29T08:19:02;95252.00;;;16.78;67.57
15444;BME280;7822;48.146;11.576;2023-05-29T08:21:31;95255.44;;;16.78;67.47
15444;BME280;7822;48.146;11.576;2023-05-29T08:23:59;95247.72;;;16.77;67.52
15444;BME280;7822;48.146;11.576;2023-05-29T08:26:26;95249.38;;;16.78;67.61
15444;BME280;7822;48.146;11.576;2023-05-29T08:28:54;95245.94;;;16.77;67.68
15444;BME280;7822;48.146;11.576;2023-05-29T08:31:21;95251.16;;;16.77;67.68
15444;BME280;7822;48.146;11.576;2023-05-29T08:33:51;95263.44;;;16.77;67.57
15444;BME280;7822;48.146;11.576;2023-05-29T08:36:18;95258.19;;;16.77;67.68
15444;BME280;7822;48.146;11.576;2023-05-29T08:38:49;95256.41;;;16.77;67.76
15444;BME280;7822;48.146;11.576;2023-05-29T08:41:17;95255.56;;;16.77;67.78
15444;BME280;7822;48.146;11.576;2023-05-29T08:43:48;95246.91;;;16.76;67.89
15444;BME280;7822;48.146;11.576;2023-05-29T08:46:16;95258.19;;;16.77;67.88
15444;BME280;7822;48.146;11.576;2023-05-29T08:48:47;95257.41;;;16.76;67.97
15444;BME280;7822;48.146;11.576;2023-05-29T08:51:16;95252.16;;;16.76;67.80
15444;BME280;7822;48.146;11.576;2023-05-29T08:53:46;95249.53;;;16.76;67.92
15444;BME280;7822;48.146;11.576;2023-05-29T08:56:15;95260.03;;;16.76;67.91
15444;BME280;7822;48.146;11.576;2023-05-29T08:58:58;95258.19;;;16.77;67.80
15444;BME280;7822;48.146;11.576;2023-05-29T09:01:48;95258.19;;;16.77;67.85
15444;BME280;7822;48.146;11.576;2023-05-29T09:04:15;95260.81;;;16.77;67.92
15444;BME280;7822;48.146;11.576;2023-05-29T09:06:44;95260.03;;;16.76;68.05
15444;BME280;7822;48.146;11.576;2023-05-29T09:09:13;95263.44;;;16.77;67.73
15444;BME280;7822;48.146;11.576;2023-05-29T09:11:43;95267.72;;;16.78;67.86
15444;BME280;7822;48.146;11.576;2023-05-29T09:14:11;95267.88;;;16.76;67.83
15444;BME280;7822;48.146;11.576;2023-05-29T09:16:41;95263.44;;;16.77;67.88
15444;BME280;7822;48.146;11.576;2023-05-29T09:19:08;95262.47;;;16.78;67.95
15444;BME280;7822;48.146;11.576;2023-05-29T09:21:39;95256.22;;;16.79;67.85
15444;BME280;7822;48.146;11.576;2023-05-29T09:24:06;95257.22;;;16.78;67.93
15444;BME280;7822;48.146;11.576;2023-05-29T09:26:34;95269.34;;;16.79;67.71
15444;BME280;7822;48.146;11.576;2023-05-29T09:29:03;95258.06;;;16.78;67.83
15444;BME280;7822;48.146;11.576;2023-05-29T09:31:31;95260.69;;;16.78;67.82
15444;BME280;7822;48.146;11.576;2023-05-29T09:34:00;95261.47;;;16.79;67.88
15444;BME280;7822;48.146;11.576;2023-05-29T09:36:29;95253.63;;;16.79;68.02
15444;BME280;7822;48.146;11.576;2023-05-29T09:38:57;95255.44;;;16.78;68.09
15444;BME280;7822;48.146;11.576;2023-05-29T09:41:31;95258.84;;;16.79;67.88
15444;BME280;7822;48.146;11.576;2023-05-29T09:43:59;95260.69;;;16.78;68.01
15444;BME280;7822;48.146;11.576;2023-05-29T09:46:29;95263.44;;;16.77;67.91
15444;BME280;7822;48.146;11.576;2023-05-29T09:49:01;95259.03;;;16.77;67.94
15444;BME280;7822;48.146;11.576;2023-05-29T09:51:28;95255.56;;;16.77;67.94
15444;BME280;7822;48.146;11.576;2023-05-29T09:53:57;95266.88;;;16.77;68.03
15444;BME280;7822;48.146;11.576;2023-05-29T09:56:27;95265.25;;;16.76;68.01
15444;BME280;7822;48.146;11.576;2023-05-29T09:58:55;95261.81;;;16.76;68.04
15444;BME280;7822;48.146;11.576;2023-05-29T10:01:23;95265.25;;;16.76;68.00
15444;BME280;7822;48.146;11.576;2023-05-29T10:03:52;95265.25;;;16.76;68.08
15444;BME280;7822;48.146;11.576;2023-05-29T10:06:21;95267.06;;;16.76;68.12
15444;BME280;7822;48.146;11.576;2023-05-29T10:08:49;95263.59;;;16.75;68.11
15444;BME280;7822;48.146;11.576;2023-05-29T10:11:20;95264.44;;;16.76;68.08
15444;BME280;7822;48.146;11.576;2023-05-29T10:13:51;95258.19;;;16.77;68.12
15444;BME280;7822;48.146;11.576;2023-05-29T10:16:19;95251.34;;;16.76;68.08
15444;BME280;7822;48.146;11.576;2023-05-29T10:18:49;95251.34;;;16.76;68.13
15444;BME280;7822;48.146;11.576;2023-05-29T10:21:18;95253.94;;;16.76;68.22
15444;BME280;7822;48.146;11.576;2023-05-29T10:23:47;95241.69;;;16.76;67.97
15444;BME280;7822;48.146;11.576;2023-05-29T10:26:15;95245.28;;;16.75;68.19
15444;BME280;7822;48.146;11.576;2023-05-29T10:28:49;95251.34;;;16.76;68.13
15444;BME280;7822;48.146;11.576;2023-05-29T10:31:22;95247.88;;;16.75;68.16
15444;BME280;7822;48.146;11.576;2023-05-29T10:33:55;95244.31;;;16.76;68.14
15444;BME280;7822;48.146;11.576;2023-05-29T10:36:28;95233.00;;;16.76;68.00
15444;BME280;7822;48.146;11.576;2023-05-29T10:38:58;95241.69;;;16.76;68.13
15444;BME280;7822;48.146;11.576;2023-05-29T10:41:29;95237.25;;;16.77;68.14
15444;BME280;7822;48.146;11.576;2023-05-29T10:43:58;95248.53;;;16.77;68.27
15444;BME280;7822;48.146;11.576;2023-05-29T10:49:15;95233.66;;;16.78;68.04
15444;BME280;7822;48.146;11.576;2023-05-29T10:51:44;95231.84;;;16.78;68.12
15444;BME280;7822;48.146;11.576;2023-05-29T10:54:12;95236.28;;;16.78;68.11
15444;BME280;7822;48.146;11.576;2023-05-29T10:56:40;95251.81;;;16.79;68.07
15444;BME280;7822;48.146;11.576;2023-05-29T10:59:08;95248.25;;;16.80;68.12
15444;BME280;7822;48.146;11.576;2023-05-29T11:01:38;95247.41;;;16.80;68.12
15444;BME280;7822;48.146;11.576;2023-05-29T11:06:54;95237.75;;;16.80;68.09
15444;BME280;7822;48.146;11.576;2023-05-29T11:09:26;95237.75;;;16.80;68.21
15444;BME280;7822;48.146;11.576;2023-05-29T11:14:43;95236.94;;;16.80;68.26
15444;BME280;7822;48.146;11.576;2023-05-29T11:19:54;95235.94;;;16.81;68.09
15444;BME280;7822;48.146;11.576;2023-05-29T11:22:27;95235.13;;;16.80;68.13
15444;BME280;7822;48.146;11.576;2023-05-29T11:24:57;95240.38;;;16.80;68.31
15444;BME280;7822;48.146;11.576;2023-05-29T11:27:25;95240.38;;;16.80;68.22
15444;BME280;7822;48.146;11.576;2023-05-29T11:29:53;95239.56;;;16.80;68.36
15444;BME280;7822;48.146;11.576;2023-05-29T11:32:21;95234.31;;;16.80;68.29
15444;BME280;7822;48.146;11.576;2023-05-29T11:34:52;95243.00;;;16.80;68.13
15444;BME280;7822;48.146;11.576;2023-05-29T11:37:22;95240.38;;;16.80;68.06
15444;BME280;7822;48.146;11.576;2023-05-29T11:39:52;95242.16;;;16.80;68.25
15444;BME280;7822;48.146;11.576;2023-05-29T11:42:19;95235.13;;;16.80;68.38
15444;BME280;7822;48.146;11.576;2023-05-29T11:44:47;95241.34;;;16.79;68.27
15444;BME280;7822;48.146;11.576;2023-05-29T11:47:14;95236.94;;;16.80;68.42
15444;BME280;7822;48.146;11.576;2023-05-29T11:49:42;95237.91;;;16.79;68.37
15444;BME280;7822;48.146;11.576;2023-05-29T11:52:12;95241.34;;;16.79;68.37
15444;BME280;7822;48.146;11.576;2023-05-29T11:54:42;95235.13;;;16.80;68.35
15444;BME280;7822;48.146;11.576;2023-05-29T11:57:18;95236.94;;;16.80;68.23
15444;BME280;7822;48.146;11.576;2023-05-29T11:59:46;95234.31;;;16.80;68.45
15444;BME280;7822;48.146;11.576;2023-05-29T12:02:14;95236.94;;;16.80;68.43
15444;BME280;7822;48.146;11.576;2023-05-29T12:04:41;95228.25;;;16.79;68.41
15444;BME280;7822;48.146;11.576;2023-05-29T12:07:18;95225.63;;;16.79;68.42
15444;BME280;7822;48.146;11.576;2023-05-29T12:09:45;95224.66;;;16.80;68.29
15444;BME280;7822;48.146;11.576;2023-05-29T12:12:15;95232.50;;;16.80;68.39
15444;BME280;7822;48.146;11.576;2023-05-29T12:14:43;95237.75;;;16.80;68.46
15444;BME280;7822;48.146;11.576;2023-05-29T12:17:11;95233.31;;;16.81;68.41
15444;BME280;7822;48.146;11.576;2023-05-29T12:19:39;95226.44;;;16.80;68.46
15444;BME280;7822;48.146;11.576;2023-05-29T12:22:06;95233.31;;;16.81;68.40
15444;BME280;7822;48.146;11.576;2023-05-29T12:24:34;95228.06;;;16.81;68.36
15444;BME280;7822;48.146;11.576;2023-05-29T12:30:00;95234.13;;;16.81;68.34
15444;BME280;7822;48.146;11.576;2023-05-29T12:32:33;95226.28;;;16.81;68.47
15444;BME280;7822;48.146;11.576;2023-05-29T12:35:01;95220.06;;;16.82;68.52
15444;BME280;7822;48.146;11.576;2023-05-29T12:37:30;95228.91;;;16.81;68.43
15444;BME280;7822;48.146;11.576;2023-05-29T12:40:10;95227.09;;;16.82;68.46
15444;BME280;7822;48.146;11.576;2023-05-29T12:42:38;95219.25;;;16.82;68.55
15444;BME280;7822;48.146;11.576;2023-05-29T12:45:07;95232.50;;;16.80;68.36
15444;BME280;7822;48.146;11.576;2023-05-29T12:47:35;95232.34;;;16.82;68.52
15444;BME280;7822;48.146;11.576;2023-05-29T12:50:19;95231.53;;;16.81;68.69
15444;BME280;7822;48.146;11.576;2023-05-29T12:52:52;95235.94;;;16.81;68.50
15444;BME280;7822;48.146;11.576;2023-05-29T12:55:20;95233.31;;;16.81;68.59
15444;BME280;7822;48.146;11.576;2023-05-29T12:57:47;95233.31;;;16.81;68.69
15444;BME280;7822;48.146;11.576;2023-05-29T13:00:17;95232.50;;;16.80;68.58
15444;BME280;7822;48.146;11.576;2023-05-29T13:02:45;95240.38;;;16.80;68.54
15444;BME280;7822;48.146;11.576;2023-05-29T13:05:12;95230.69;;;16.81;68.65
15444;BME280;7822;48.146;11.576;2023-05-29T13:07:40;95230.69;;;16.81;68.78
15444;BME280;7822;48.146;11.576;2023-05-29T13:10:07;95233.31;;;16.81;68.49
15444;BME280;7822;48.146;11.576;2023-05-29T13:12:35;95227.28;;;16.80;68.57
15444;BME280;7822;48.146;11.576;2023-05-29T13:15:03;95216.78;;;16.80;68.72
15444;BME280;7822;48.146;11.576;2023-05-29T13:17:32;95227.28;;;16.80;68.45
15444;BME280;7822;48.146;11.576;2023-05-29T13:20:00;95216.78;;;16.80;68.68
15444;BME280;7822;48.146;11.576;2023-05-29T13:22:28;95221.22;;;16.80;68.65
15444;BME280;7822;48.146;11.576;2023-05-29T13:24:57;95225.63;;;16.79;68.61